Airfield :
LOGIN :

Register | Disclaimer

   EN    FR    IT 

 










Legend :    VFR   Marginal VFR   IFR   Intensive IFR   Very Intensive IFR
Visi :
Ceiling :
>= 8 km
>= 3000ft
5 to 8 km
1000 to 3000 ft
1500m to 5 km
500 to 1000 ft
800 to 1500m
200 to 500 ft
< 800m
< 200 ft
Symbols :   Thunderstorms  Fog  Heavy snow  Heavy precipitations  Wind > 20 kt
SIGMETs :     Misc.  Thunderstorms  Icing  Turbulence  Mountain Waves  Volcanic Ashes






- Airport Elevation : 38 ft
- IATA code : TRE


EGPU - Tiree

CURRENT METAR :
  • 260920Z AUTO 26017KT 230V290 9999 SCT039/// SCT048/// 06/02 Q0995

EXPIRED METARs :
  • 260850Z AUTO 26016KT 9999 SCT039/// 07/02 Q0995
  • 260820Z AUTO 25017KT 220V290 9999 FEW033/// BKN044/// 07/02 Q0994
  • 260750Z AUTO 25017KT 220V280 9999 NCD 07/04 Q0994 RERA
  • 260720Z AUTO 26020KT 9999 FEW025/// 07/04 Q0994 RERA
  • 260650Z AUTO 25015KT 210V280 9999 RA FEW014/// BKN034/// 07/06 Q0993

TAF TAF EGPU
Valid from the 26 at 09:00 until the 26 at 18:00 UTC


260804Z 2609/2618 26018KT 9999 SCT020
TEMPO 2609/2618 26020G30KT
PROB40
TEMPO 2609/2612 6000 SHRA BKN014
TEMPO 2612/2618 5000 SHRASN BKN010



MET'MAP, your aeronautical weather chart ! - Copyright ORBIFLY December 2007 - Disclaimer

ORBIFLY MET'MAP TEAM :

Programming & Development : Alexandra Zaïnal
Concept & original design : Baudouin d'Aumeries
Assistance for programming : Marc-Olivier Méhu
Technical & hardware support : Manuel Goepfert

Contact : metmap@orbifly.com




SOURCES & CREDITS :

   NOAA